Time,TemperatureF,DewpointF,PressureIn,WindDirection,WindDirectionDegrees,WindSpeedMPH,WindSpeedGustMPH,Humidity,HourlyPrecipIn,Conditions,Clouds,dailyrainin,SoftwareType,DateUTC
2013-12-01 00:00:00,42.5,27.9,30.34,SSW,209,0.0,1.0,56,0.00,CLR,,0.00,WeatherDisplay:10.37,2013-12-01 05:00:00,
2013-12-01 00:11:00,42.5,27.9,30.34,SSW,209,0.0,1.0,56,0.00,CLR,,0.00,WeatherDisplay:10.37,2013-12-01 05:11:00,
2013-12-01 00:21:00,42.5,27.9,30.34,SSW,211,1.0,3.0,56,0.00,CLR,,0.00,WeatherDisplay:10.37,2013-12-01 05:21:00,
2013-12-01 00:31:00,42.5,27.9,30.34,SSW,212,0.0,1.0,56,0.00,CLR,,0.00,WeatherDisplay:10.37,2013-12-01 05:31:00,
2013-12-01 00:41:00,42.4,27.8,30.34,SSW,212,0.0,1.0,56,0.00,CLR,,0.00,WeatherDisplay:10.37,2013-12-01 05:41:00,
2013-12-01 00:51:00,42.2,28.5,30.33,SSW,212,0.0,0.0,58,0.00,CLR,,0.00,WeatherDisplay:10.37,2013-12-01 05:51:00,
2013-12-01 01:00:00,41.4,28.6,30.33,SSW,212,0.0,1.0,60,0.00,CLR,,0.00,WeatherDisplay:10.37,2013-12-01 06:00:00,
2013-12-01 01:11:00,40.4,29.2,30.33,SSW,212,0.0,0.0,64,0.00,SCT,,0.00,WeatherDisplay:10.37,2013-12-01 06:11:00,
2013-12-01 01:21:00,39.6,28.8,30.33,SSW,212,0.0,0.0,65,0.00,SCT,,0.00,WeatherDisplay:10.37,2013-12-01 06:21:00,
2013-12-01 01:31:00,38.8,28.8,30.32,SSW,212,0.0,0.0,67,0.00,SCT,,0.00,WeatherDisplay:10.37,2013-12-01 06:31:00,
2013-12-01 01:41:00,38.3,29.0,30.32,SSW,212,0.0,0.0,69,0.00,SCT,,0.00,WeatherDisplay:10.37,2013-12-01 06:41:00,
2013-12-01 01:51:00,38.0,28.4,30.31,SSW,212,0.0,0.0,68,0.00,SCT,,0.00,WeatherDisplay:10.37,2013-12-01 06:51:00,
2013-12-01 02:00:00,37.7,28.5,30.31,SSW,212,0.0,0.0,69,0.00,SCT,,0.00,WeatherDisplay:10.37,2013-12-01 07:00:00,
2013-12-01 02:11:00,37.4,29.2,30.31,SSW,212,0.0,3.0,72,0.00,CLR,,0.00,WeatherDisplay:10.37,2013-12-01 07:11:00,
2013-12-01 02:21:00,36.9,29.1,30.31,SSW,212,0.0,0.0,73,0.00,CLR,,0.00,WeatherDisplay:10.37,2013-12-01 07:21:00,
2013-12-01 02:31:00,36.6,28.8,30.31,SSW,212,0.0,0.0,73,0.00,CLR,,0.00,WeatherDisplay:10.37,2013-12-01 07:31:00,
2013-12-01 02:41:00,36.2,28.7,30.31,SSW,212,0.0,0.0,74,0.00,CLR,,0.00,WeatherDisplay:10.37,2013-12-01 07:41:00,
2013-12-01 02:51:00,35.6,29.1,30.31,SSW,212,0.0,0.0,77,0.00,CLR,,0.00,WeatherDisplay:10.37,2013-12-01 07:51:00,
2013-12-01 03:00:00,35.1,28.9,30.31,SSW,212,0.0,0.0,78,0.00,CLR,,0.00,WeatherDisplay:10.37,2013-12-01 08:00:00,
2013-12-01 03:11:00,34.6,28.8,30.31,SSW,212,0.0,0.0,79,0.00,CLR,,0.00,WeatherDisplay:10.37,2013-12-01 08:11:00,
2013-12-01 03:21:00,34.2,28.7,30.31,SSW,212,0.0,0.0,80,0.00,CLR,,0.00,WeatherDisplay:10.37,2013-12-01 08:21:00,
2013-12-01 03:31:00,33.9,28.7,30.31,SSW,212,0.0,0.0,81,0.00,CLR,,0.00,WeatherDisplay:10.37,2013-12-01 08:31:00,
2013-12-01 03:41:00,33.6,28.4,30.31,SSW,212,0.0,2.0,81,0.00,CLR,,0.00,WeatherDisplay:10.37,2013-12-01 08:41:00,
2013-12-01 03:51:00,33.5,28.6,30.31,SSW,212,0.0,2.0,82,0.00,CLR,,0.00,WeatherDisplay:10.37,2013-12-01 08:51:00,
2013-12-01 04:00:00,33.3,28.7,30.31,SSW,212,0.0,1.0,83,0.00,CLR,,0.00,WeatherDisplay:10.37,2013-12-01 09:00:00,
2013-12-01 04:11:00,32.8,28.2,30.30,SSW,212,0.0,0.0,83,0.00,CLR,,0.00,WeatherDisplay:10.37,2013-12-01 09:11:00,
2013-12-01 04:21:00,32.2,27.9,30.30,SSW,212,0.0,0.0,84,0.00,CLR,,0.00,WeatherDisplay:10.37,2013-12-01 09:21:00,
2013-12-01 04:31:00,31.7,27.7,30.30,SSW,212,0.0,0.0,85,0.00,CLR,,0.00,WeatherDisplay:10.37,2013-12-01 09:31:00,
2013-12-01 04:41:00,31.5,27.7,30.30,SSW,212,0.0,0.0,86,0.00,CLR,,0.00,WeatherDisplay:10.37,2013-12-01 09:41:00,
2013-12-01 04:51:00,31.1,27.7,30.30,SSW,212,0.0,2.0,87,0.00,CLR,,0.00,WeatherDisplay:10.37,2013-12-01 09:51:00,
2013-12-01 05:00:00,30.7,27.3,30.30,SSW,212,0.0,0.0,87,0.00,CLR,,0.00,WeatherDisplay:10.37,2013-12-01 10:00:00,
2013-12-01 05:11:00,30.5,27.1,30.29,SSW,212,0.0,0.0,87,0.00,CLR,,0.00,WeatherDisplay:10.37,2013-12-01 10:11:00,
2013-12-01 05:21:00,30.2,27.1,30.29,SSW,212,0.0,0.0,88,0.00,CLR,,0.00,WeatherDisplay:10.37,2013-12-01 10:21:00,
2013-12-01 05:31:00,30.0,26.9,30.29,SSW,212,0.0,1.0,88,0.00,CLR,,0.00,WeatherDisplay:10.37,2013-12-01 10:31:00,
2013-12-01 05:41:00,29.9,27.1,30.30,SSW,212,0.0,1.0,89,0.00,CLR,,0.00,WeatherDisplay:10.37,2013-12-01 10:41:00,
2013-12-01 05:51:00,29.7,26.9,30.29,SSW,212,0.0,0.0,89,0.00,CLR,,0.00,WeatherDisplay:10.37,2013-12-01 10:51:00,
2013-12-01 06:00:00,29.6,26.8,30.29,SSW,212,0.0,2.0,89,0.00,CLR,,0.00,WeatherDisplay:10.37,2013-12-01 11:00:00,
2013-12-01 06:11:00,29.4,26.9,30.29,SSW,212,0.0,0.0,90,0.00,CLR,,0.00,WeatherDisplay:10.37,2013-12-01 11:11:00,
2013-12-01 06:21:00,29.3,26.7,30.29,SSW,212,0.0,0.0,90,0.00,CLR,,0.00,WeatherDisplay:10.37,2013-12-01 11:21:00,
2013-12-01 06:31:00,29.1,26.5,30.29,SSW,212,0.0,0.0,90,0.00,CLR,,0.00,WeatherDisplay:10.37,2013-12-01 11:31:00,
2013-12-01 06:41:00,29.0,26.7,30.28,SSW,212,0.0,1.0,91,0.00,CLR,,0.00,WeatherDisplay:10.37,2013-12-01 11:41:00,
2013-12-01 06:51:00,28.9,26.6,30.28,SSW,212,0.0,1.0,91,0.00,CLR,,0.00,WeatherDisplay:10.37,2013-12-01 11:51:00,
2013-12-01 07:00:00,28.8,26.5,30.29,SSW,212,0.0,1.0,91,0.00,CLR,,0.00,WeatherDisplay:10.37,2013-12-01 12:00:00,
2013-12-01 07:11:00,28.9,26.6,30.29,SSW,212,0.0,0.0,91,0.00,CLR,,0.00,WeatherDisplay:10.37,2013-12-01 12:11:00,
2013-12-01 07:21:00,28.7,26.4,30.29,SSW,212,0.0,0.0,91,0.00,CLR,,0.00,WeatherDisplay:10.37,2013-12-01 12:21:00,
2013-12-01 07:31:00,28.6,26.3,30.30,SSW,212,0.0,0.0,91,0.00,CLR,,0.00,WeatherDisplay:10.37,2013-12-01 12:31:00,
2013-12-01 07:41:00,28.5,26.2,30.30,SSW,212,0.0,0.0,91,0.00,CLR,,0.00,WeatherDisplay:10.37,2013-12-01 12:41:00,
2013-12-01 07:51:00,28.6,26.3,30.30,SSW,212,0.0,0.0,91,0.00,CLR,,0.00,WeatherDisplay:10.37,2013-12-01 12:51:00,
2013-12-01 08:00:00,28.7,26.7,30.31,SSW,212,0.0,1.0,92,0.00,CLR,,0.00,WeatherDisplay:10.37,2013-12-01 13:00:00,
2013-12-01 08:11:00,28.9,26.9,30.30,SSW,212,0.0,0.0,92,0.00,CLR,,0.00,WeatherDisplay:10.37,2013-12-01 13:11:00,
2013-12-01 08:21:00,29.3,27.3,30.30,SSW,212,0.0,1.0,92,0.00,CLR,,0.00,WeatherDisplay:10.37,2013-12-01 13:21:00,
2013-12-01 08:31:00,30.0,28.2,30.30,SSW,212,0.0,2.0,93,0.00,CLR,,0.00,WeatherDisplay:10.37,2013-12-01 13:31:00,
2013-12-01 08:41:00,30.7,28.7,30.30,SSW,212,0.0,1.0,92,0.00,CLR,,0.00,WeatherDisplay:10.37,2013-12-01 13:41:00,
2013-12-01 08:51:00,31.6,29.6,30.30,SSW,212,0.0,0.0,92,0.00,CLR,,0.00,WeatherDisplay:10.37,2013-12-01 13:51:00,
2013-12-01 09:00:00,32.6,30.3,30.30,SSW,212,0.0,0.0,91,0.00,CLR,,0.00,WeatherDisplay:10.37,2013-12-01 14:00:00,
2013-12-01 09:11:00,33.5,30.9,30.30,SSW,212,0.0,1.0,90,0.00,CLR,,0.00,WeatherDisplay:10.37,2013-12-01 14:11:00,
2013-12-01 09:21:00,34.5,31.6,30.30,SSW,212,0.0,0.0,89,0.00,CLR,,0.00,WeatherDisplay:10.37,2013-12-01 14:21:00,
2013-12-01 09:31:00,35.4,32.2,30.30,SSW,212,0.0,0.0,88,0.00,CLR,,0.00,WeatherDisplay:10.37,2013-12-01 14:31:00,
2013-12-01 09:41:00,36.3,32.8,30.30,SSW,212,0.0,0.0,87,0.00,CLR,,0.00,WeatherDisplay:10.37,2013-12-01 14:41:00,
2013-12-01 09:51:00,37.3,33.2,30.30,SSW,212,0.0,1.0,85,0.00,CLR,,0.00,WeatherDisplay:10.37,2013-12-01 14:51:00,
2013-12-01 10:00:00,38.9,34.2,30.29,SSW,212,0.0,1.0,83,0.00,CLR,,0.00,WeatherDisplay:10.37,2013-12-01 15:00:00,
2013-12-01 10:11:00,40.4,32.7,30.29,SSW,212,0.0,1.0,74,0.00,CLR,,0.00,WeatherDisplay:10.37,2013-12-01 15:11:00,
2013-12-01 10:21:00,41.7,33.0,30.29,SSW,212,0.0,1.0,71,0.00,CLR,,0.00,WeatherDisplay:10.37,2013-12-01 15:21:00,
2013-12-01 10:31:00,42.7,33.2,30.29,SSW,212,0.0,2.0,69,0.00,CLR,,0.00,WeatherDisplay:10.37,2013-12-01 15:31:00,
2013-12-01 10:41:00,43.5,33.3,30.28,SSW,212,0.0,2.0,67,0.00,CLR,,0.00,WeatherDisplay:10.37,2013-12-01 15:41:00,
2013-12-01 10:51:00,44.5,33.9,30.28,SSW,212,0.0,2.0,66,0.00,CLR,,0.00,WeatherDisplay:10.37,2013-12-01 15:51:00,
2013-12-01 11:00:00,45.8,33.1,30.28,South,169,2.0,4.0,61,0.00,CLR,,0.00,WeatherDisplay:10.37,2013-12-01 16:00:00,
2013-12-01 11:11:00,46.3,33.2,30.27,SE,144,0.0,1.0,60,0.00,CLR,,0.00,WeatherDisplay:10.37,2013-12-01 16:11:00,
2013-12-01 11:21:00,47.1,33.0,30.27,SSE,160,1.0,7.0,58,0.00,CLR,,0.00,WeatherDisplay:10.37,2013-12-01 16:21:00,
2013-12-01 11:31:00,47.5,32.6,30.26,South,178,1.0,5.0,56,0.00,CLR,,0.00,WeatherDisplay:10.37,2013-12-01 16:31:00,
2013-12-01 11:41:00,48.0,33.1,30.25,SE,142,1.0,6.0,56,0.00,CLR,,0.00,WeatherDisplay:10.37,2013-12-01 16:41:00,
2013-12-01 11:51:00,48.6,33.1,30.24,SSE,159,1.0,5.0,55,0.00,CLR,,0.00,WeatherDisplay:10.37,2013-12-01 16:51:00,
2013-12-01 12:00:00,48.8,32.9,30.24,SSE,149,1.0,6.0,54,0.00,CLR,,0.00,WeatherDisplay:10.37,2013-12-01 17:00:00,
2013-12-01 12:11:00,49.0,33.1,30.23,SE,136,1.0,6.0,54,0.00,CLR,,0.00,WeatherDisplay:10.37,2013-12-01 17:11:00,
2013-12-01 12:21:00,49.5,33.5,30.23,SE,136,0.0,6.0,54,0.00,CLR,,0.00,WeatherDisplay:10.37,2013-12-01 17:21:00,
2013-12-01 12:31:00,49.8,33.8,30.22,SE,136,3.0,5.0,54,0.00,CLR,,0.00,WeatherDisplay:10.37,2013-12-01 17:31:00,
2013-12-01 12:41:00,50.1,33.6,30.22,SE,141,0.0,6.0,53,0.00,CLR,,0.00,WeatherDisplay:10.37,2013-12-01 17:41:00,
2013-12-01 12:51:00,50.5,34.0,30.22,SSE,167,1.0,4.0,53,0.00,CLR,,0.00,WeatherDisplay:10.37,2013-12-01 17:51:00,
2013-12-01 13:01:00,50.8,34.7,30.21,SE,144,1.0,5.0,54,0.00,CLR,,0.00,WeatherDisplay:10.37,2013-12-01 18:01:00,
2013-12-01 13:11:00,51.3,34.8,30.20,SE,141,0.0,4.0,53,0.00,CLR,,0.00,WeatherDisplay:10.37,2013-12-01 18:11:00,
2013-12-01 13:21:00,52.0,35.4,30.19,SE,138,3.0,5.0,53,0.00,CLR,,0.00,WeatherDisplay:10.37,2013-12-01 18:21:00,
2013-12-01 13:31:00,52.3,36.1,30.18,SE,144,1.0,5.0,54,0.00,CLR,,0.00,WeatherDisplay:10.37,2013-12-01 18:31:00,
2013-12-01 13:41:00,53.2,36.0,30.17,SSE,152,2.0,6.0,52,0.00,CLR,,0.00,WeatherDisplay:10.37,2013-12-01 18:41:00,
2013-12-01 13:51:00,53.2,36.5,30.16,SE,135,3.0,6.0,53,0.00,CLR,,0.00,WeatherDisplay:10.37,2013-12-01 18:51:00,
2013-12-01 14:00:00,53.7,37.0,30.16,SE,141,5.0,7.0,53,0.00,CLR,,0.00,WeatherDisplay:10.37,2013-12-01 19:00:00,
2013-12-01 14:11:00,54.2,37.4,30.16,SSE,159,2.0,9.0,53,0.00,CLR,,0.00,WeatherDisplay:10.37,2013-12-01 19:11:00,
2013-12-01 14:21:00,54.6,37.3,30.15,SSE,149,1.0,9.0,52,0.00,CLR,,0.00,WeatherDisplay:10.37,2013-12-01 19:21:00,
2013-12-01 14:31:00,55.3,37.0,30.14,SSW,192,2.0,5.0,50,0.00,CLR,,0.00,WeatherDisplay:10.37,2013-12-01 19:31:00,
2013-12-01 14:41:00,55.2,36.9,30.14,SW,217,1.0,7.0,50,0.00,CLR,,0.00,WeatherDisplay:10.37,2013-12-01 19:41:00,
2013-12-01 14:51:00,55.1,36.8,30.14,SW,236,0.0,4.0,50,0.00,CLR,,0.00,WeatherDisplay:10.37,2013-12-01 19:51:00,
2013-12-01 15:01:00,55.0,37.2,30.14,SW,231,1.0,5.0,51,0.00,CLR,,0.00,WeatherDisplay:10.37,2013-12-01 20:01:00,
2013-12-01 15:11:00,55.0,37.2,30.13,WSW,240,2.0,5.0,51,0.00,CLR,,0.00,WeatherDisplay:10.37,2013-12-01 20:11:00,
2013-12-01 15:21:00,54.8,37.0,30.13,WSW,243,1.0,5.0,51,0.00,CLR,,0.00,WeatherDisplay:10.37,2013-12-01 20:21:00,
2013-12-01 15:31:00,54.8,37.0,30.12,SSW,193,2.0,6.0,51,0.00,CLR,,0.00,WeatherDisplay:10.37,2013-12-01 20:31:00,
2013-12-01 15:41:00,54.9,37.1,30.12,SSE,148,0.0,5.0,51,0.00,CLR,,0.00,WeatherDisplay:10.37,2013-12-01 20:41:00,
2013-12-01 15:51:00,55.0,37.2,30.12,SSE,148,0.0,2.0,51,0.00,CLR,,0.00,WeatherDisplay:10.37,2013-12-01 20:51:00,
2013-12-01 16:00:00,55.0,37.7,30.12,SW,230,0.0,4.0,52,0.00,CLR,,0.00,WeatherDisplay:10.37,2013-12-01 21:00:00,
2013-12-01 16:11:00,55.0,38.2,30.11,WSW,257,0.0,2.0,53,0.00,CLR,,0.00,WeatherDisplay:10.37,2013-12-01 21:11:00,
2013-12-01 16:20:00,54.7,37.4,30.11,SSE,152,0.0,4.0,52,0.00,CLR,,0.00,WeatherDisplay:10.37,2013-12-01 21:20:00,
2013-12-01 16:30:00,54.5,37.7,30.11,SSE,152,0.0,2.0,53,0.00,CLR,,0.00,WeatherDisplay:10.37,2013-12-01 21:30:00,
2013-12-01 16:39:00,54.1,37.8,30.11,SSW,194,1.0,5.0,54,0.00,CLR,,0.00,WeatherDisplay:10.37,2013-12-01 21:39:00,
2013-12-01 16:49:00,53.7,38.4,30.11,South,175,0.0,2.0,56,0.00,CLR,,0.00,WeatherDisplay:10.37,2013-12-01 21:49:00,
2013-12-01 16:59:00,53.3,38.9,30.11,South,175,0.0,2.0,58,0.00,CLR,,0.00,WeatherDisplay:10.37,2013-12-01 21:59:00,
2013-12-01 17:09:00,52.6,38.7,30.10,South,175,0.0,1.0,59,0.00,CLR,,0.00,WeatherDisplay:10.37,2013-12-01 22:09:00,
2013-12-01 17:19:00,51.9,38.9,30.10,South,175,0.0,2.0,61,0.00,CLR,,0.00,WeatherDisplay:10.37,2013-12-01 22:19:00,
2013-12-01 17:30:00,51.4,38.8,30.10,South,175,0.0,1.0,62,0.00,CLR,,0.00,WeatherDisplay:10.37,2013-12-01 22:30:00,
2013-12-01 17:39:00,50.8,38.6,30.09,South,175,0.0,0.0,63,0.00,CLR,,0.00,WeatherDisplay:10.37,2013-12-01 22:39:00,
2013-12-01 17:49:00,50.2,38.9,30.09,South,175,0.0,0.0,65,0.00,CLR,,0.00,WeatherDisplay:10.37,2013-12-01 22:49:00,
2013-12-01 17:59:00,49.6,38.7,30.09,South,175,0.0,1.0,66,0.00,CLR,,0.00,WeatherDisplay:10.37,2013-12-01 22:59:00,
2013-12-01 18:09:00,49.2,39.5,30.09,South,175,0.0,0.0,69,0.00,CLR,,0.00,WeatherDisplay:10.37,2013-12-01 23:09:00,
2013-12-01 18:19:00,48.6,38.9,30.09,South,175,0.0,0.0,69,0.00,CLR,,0.00,WeatherDisplay:10.37,2013-12-01 23:19:00,
2013-12-01 18:30:00,48.4,39.1,30.09,South,175,0.0,0.0,70,0.00,CLR,,0.00,WeatherDisplay:10.37,2013-12-01 23:30:00,
2013-12-01 18:40:00,48.8,39.1,30.09,South,175,1.0,4.0,69,0.00,BKN,,0.00,WeatherDisplay:10.37,2013-12-01 23:40:00,
2013-12-01 18:50:00,49.1,40.1,30.09,South,177,0.0,2.0,71,0.00,OVC,,0.00,WeatherDisplay:10.37,2013-12-01 23:50:00,
2013-12-01 19:00:00,48.7,39.7,30.09,South,177,0.0,0.0,71,0.00,OVC,,0.00,WeatherDisplay:10.37,2013-12-02 00:00:00,
2013-12-01 19:10:00,48.6,39.3,30.08,South,177,0.0,2.0,70,0.00,OVC,,0.00,WeatherDisplay:10.37,2013-12-02 00:10:00,
2013-12-01 19:20:00,48.7,39.0,30.09,South,177,0.0,1.0,69,0.00,OVC,,0.00,WeatherDisplay:10.37,2013-12-02 00:20:00,
2013-12-01 19:30:00,48.7,40.1,30.09,South,177,0.0,2.0,72,0.00,OVC,,0.00,WeatherDisplay:10.37,2013-12-02 00:30:00,
2013-12-01 19:40:00,48.4,39.1,30.08,South,177,0.0,0.0,70,0.00,OVC,,0.00,WeatherDisplay:10.37,2013-12-02 00:40:00,
2013-12-01 19:50:00,48.3,39.3,30.08,South,177,0.0,0.0,71,0.00,OVC,,0.00,WeatherDisplay:10.37,2013-12-02 00:50:00,
2013-12-01 20:00:00,48.1,39.5,30.08,South,177,0.0,0.0,72,0.00,OVC,,0.00,WeatherDisplay:10.37,2013-12-02 01:00:00,
2013-12-01 20:10:00,47.8,39.2,30.08,South,177,0.0,0.0,72,0.00,OVC,,0.00,WeatherDisplay:10.37,2013-12-02 01:10:00,
2013-12-01 20:20:00,47.5,39.6,30.08,South,177,0.0,1.0,74,0.00,OVC,,0.00,WeatherDisplay:10.37,2013-12-02 01:20:00,
2013-12-01 20:30:00,47.1,39.3,30.08,South,177,0.0,0.0,74,0.00,OVC,,0.00,WeatherDisplay:10.37,2013-12-02 01:30:00,
2013-12-01 20:40:00,47.1,39.2,30.08,South,177,0.0,0.0,74,0.00,OVC,,0.00,WeatherDisplay:10.37,2013-12-02 01:40:00,
2013-12-01 20:50:00,46.9,39.7,30.08,South,177,0.0,0.0,76,0.00,OVC,,0.00,WeatherDisplay:10.37,2013-12-02 01:50:00,
2013-12-01 21:00:00,46.7,39.5,30.08,South,177,0.0,0.0,76,0.00,OVC,,0.00,WeatherDisplay:10.37,2013-12-02 02:00:00,
2013-12-01 21:10:00,46.6,39.8,30.08,South,177,0.0,0.0,77,0.00,OVC,,0.00,WeatherDisplay:10.37,2013-12-02 02:10:00,
2013-12-01 21:20:00,46.5,40.0,30.07,South,177,0.0,0.0,78,0.00,OVC,,0.00,WeatherDisplay:10.37,2013-12-02 02:20:00,
2013-12-01 21:30:00,46.6,40.1,30.07,South,177,0.0,0.0,78,0.00,OVC,,0.00,WeatherDisplay:10.37,2013-12-02 02:30:00,
2013-12-01 21:40:00,46.7,40.2,30.07,South,177,0.0,0.0,78,0.00,OVC,,0.00,WeatherDisplay:10.37,2013-12-02 02:40:00,
2013-12-01 21:50:00,46.7,40.5,30.07,South,177,0.0,0.0,79,0.00,OVC,,0.00,WeatherDisplay:10.37,2013-12-02 02:50:00,
2013-12-01 22:00:00,46.6,40.4,30.06,South,177,0.0,0.0,79,0.00,OVC,,0.00,WeatherDisplay:10.37,2013-12-02 03:00:00,
2013-12-01 22:10:00,46.6,40.4,30.06,South,177,0.0,0.0,79,0.00,OVC,,0.00,WeatherDisplay:10.37,2013-12-02 03:10:00,
2013-12-01 22:20:00,46.8,40.3,30.06,South,177,0.0,1.0,78,0.00,OVC,,0.00,WeatherDisplay:10.37,2013-12-02 03:20:00,
2013-12-01 22:30:00,47.0,40.8,30.06,South,177,0.0,0.0,79,0.00,OVC,,0.00,WeatherDisplay:10.37,2013-12-02 03:30:00,
2013-12-01 22:40:00,47.0,39.8,30.06,South,177,0.0,1.0,76,0.00,OVC,,0.00,WeatherDisplay:10.37,2013-12-02 03:40:00,
2013-12-01 22:50:00,47.3,40.1,30.06,South,177,0.0,0.0,76,0.00,OVC,,0.00,WeatherDisplay:10.37,2013-12-02 03:50:00,
2013-12-01 23:00:00,47.3,39.8,30.05,South,177,0.0,0.0,75,0.00,OVC,,0.00,WeatherDisplay:10.37,2013-12-02 04:00:00,
2013-12-01 23:10:00,47.4,39.9,30.05,South,177,0.0,0.0,75,0.00,OVC,,0.00,WeatherDisplay:10.37,2013-12-02 04:10:00,
2013-12-01 23:20:00,47.4,39.5,30.05,South,177,0.0,0.0,74,0.00,OVC,,0.00,WeatherDisplay:10.37,2013-12-02 04:20:00,
2013-12-01 23:30:00,47.3,40.1,30.05,South,177,0.0,0.0,76,0.00,OVC,,0.00,WeatherDisplay:10.37,2013-12-02 04:30:00,
2013-12-01 23:40:00,47.1,39.9,30.04,South,177,0.0,0.0,76,0.00,OVC,,0.00,WeatherDisplay:10.37,2013-12-02 04:40:00,
2013-12-01 23:49:00,47.0,39.5,30.04,South,177,0.0,0.0,75,0.00,OVC,,0.00,WeatherDisplay:10.37,2013-12-02 04:49:00,